Time;durP1;ratioP1;P1;durP2;ratioP2;P2;SDS_P1;SDS_P2;PMS_P1;PMS_P2;Temp;Humidity;BMP_temperature;BMP_pressure;BME280_temperature;BME280_humidity;BME280_pressure;Samples;Min_cycle;Max_cycle;Signal;HPM_P1;HPM_P2
2021/03/20 00:01:29;;;;;;;15.20;7.47;;;-1.80;99.90;;;;;;5081927;28;20441;-74
2021/03/20 00:03:55;;;;;;;12.77;7.53;;;-1.80;99.90;;;;;;5081107;28;20387;-74
2021/03/20 00:06:25;;;;;;;7.00;6.30;;;-1.80;99.90;;;;;;5084154;28;20863;-74
2021/03/20 00:08:52;;;;;;;13.03;7.33;;;-1.80;99.90;;;;;;5080675;28;20508;-74
2021/03/20 00:11:19;;;;;;;14.03;6.80;;;-1.90;99.90;;;;;;5080480;28;20786;-74
2021/03/20 00:13:45;;;;;;;13.13;7.83;;;-1.90;99.90;;;;;;5083381;28;20949;-74
2021/03/20 00:16:11;;;;;;;10.40;6.50;;;-1.90;99.90;;;;;;5081373;28;20444;-74
2021/03/20 00:18:37;;;;;;;10.10;6.10;;;-1.90;99.90;;;;;;5082402;28;20551;-74
2021/03/20 00:21:03;;;;;;;11.87;7.20;;;-1.90;99.90;;;;;;5080930;28;20422;-74
2021/03/20 00:23:29;;;;;;;17.67;7.63;;;-1.90;99.90;;;;;;5080805;28;20185;-74
2021/03/20 00:25:54;;;;;;;13.63;7.70;;;-2.00;99.90;;;;;;5083399;28;20567;-75
2021/03/20 00:28:27;;;;;;;7.87;5.93;;;-2.00;99.90;;;;;;5080230;28;20523;-74
2021/03/20 00:30:56;;;;;;;15.97;6.67;;;-2.00;99.90;;;;;;5080316;28;20204;-75
2021/03/20 00:33:22;;;;;;;13.73;6.00;;;-2.10;99.90;;;;;;5083466;28;20397;-74
2021/03/20 00:35:48;;;;;;;9.80;6.40;;;-2.10;99.90;;;;;;5080039;28;20423;-74
2021/03/20 00:38:14;;;;;;;11.63;7.40;;;-2.00;99.90;;;;;;5082868;28;20177;-74
2021/03/20 00:40:40;;;;;;;9.00;6.60;;;-2.00;99.90;;;;;;5080926;28;20201;-74
2021/03/20 00:43:06;;;;;;;10.83;6.67;;;-2.10;99.90;;;;;;5081509;28;20426;-74
2021/03/20 00:45:33;;;;;;;9.30;6.00;;;-2.00;99.90;;;;;;5082160;28;20468;-74
2021/03/20 00:48:14;;;;;;;8.10;6.37;;;-2.10;99.90;;;;;;5080531;28;20487;-74
2021/03/20 00:50:41;;;;;;;11.90;7.00;;;-2.00;99.90;;;;;;5080612;28;20959;-73
2021/03/20 00:53:07;;;;;;;11.60;7.83;;;-2.00;99.90;;;;;;5081478;28;20422;-74
2021/03/20 00:55:32;;;;;;;10.83;7.00;;;-1.90;99.90;;;;;;5081940;28;20417;-74
2021/03/20 00:57:58;;;;;;;12.63;7.20;;;-1.90;99.90;;;;;;5080227;28;20181;-74
2021/03/20 01:00:26;;;;;;;11.87;7.10;;;-1.80;99.90;;;;;;5083032;28;20205;-74
2021/03/20 01:02:52;;;;;;;10.93;7.27;;;-1.80;99.90;;;;;;5079332;28;20277;-74
2021/03/20 01:05:18;;;;;;;11.50;7.90;;;-1.70;99.90;;;;;;5083157;28;20409;-74
2021/03/20 01:07:44;;;;;;;10.77;7.60;;;-1.70;99.90;;;;;;5079739;28;20215;-74
2021/03/20 01:10:21;;;;;;;14.00;7.27;;;-1.70;99.90;;;;;;5081886;28;20958;-74
2021/03/20 01:12:47;;;;;;;11.57;7.57;;;-1.60;99.90;;;;;;5079180;28;20417;-74
2021/03/20 01:15:16;;;;;;;9.13;6.90;;;-1.60;99.90;;;;;;5082313;28;20520;-74
2021/03/20 01:17:42;;;;;;;16.20;6.20;;;-1.60;99.90;;;;;;5079902;28;20187;-74
2021/03/20 01:20:08;;;;;;;10.27;6.90;;;-1.60;99.90;;;;;;5081423;28;20454;-74
2021/03/20 01:22:34;;;;;;;10.27;6.77;;;-1.50;99.90;;;;;;5079449;28;20744;-74
2021/03/20 01:25:00;;;;;;;10.67;7.10;;;-1.50;99.90;;;;;;5080284;28;20438;-74
2021/03/20 01:27:25;;;;;;;10.63;6.77;;;-1.50;99.90;;;;;;5082183;28;20681;-74
2021/03/20 01:29:51;;;;;;;10.40;6.97;;;-1.50;99.90;;;;;;5079155;28;20570;-74
2021/03/20 01:32:16;;;;;;;8.40;6.90;;;-1.50;99.90;;;;;;5082410;28;20250;-74
2021/03/20 01:34:42;;;;;;;7.93;6.10;;;-1.40;99.90;;;;;;5079745;28;20187;-75
2021/03/20 01:37:07;;;;;;;18.70;7.57;;;-1.40;99.90;;;;;;5081142;28;20178;-74
2021/03/20 01:39:33;;;;;;;12.90;8.27;;;-1.30;99.90;;;;;;5081064;28;20181;-75
2021/03/20 01:41:59;;;;;;;10.37;6.67;;;-1.30;99.90;;;;;;5079902;28;20205;-73
2021/03/20 01:44:25;;;;;;;11.43;9.30;;;-1.20;99.90;;;;;;5082406;28;20183;-74
2021/03/20 01:46:53;;;;;;;11.33;6.83;;;-1.20;99.90;;;;;;5078750;28;20206;-73
2021/03/20 01:49:32;;;;;;;11.73;7.20;;;-1.20;99.90;;;;;;5082165;28;20840;-74
2021/03/20 01:52:12;;;;;;;10.43;6.50;;;-1.10;99.90;;;;;;5079503;28;20445;-73
2021/03/20 01:54:47;;;;;;;14.77;8.37;;;-1.00;99.90;;;;;;5080578;28;20834;-74
2021/03/20 01:57:17;;;;;;;12.37;7.10;;;-0.90;99.90;;;;;;5081766;28;20404;-74
2021/03/20 01:59:44;;;;;;;11.27;6.70;;;-0.90;99.90;;;;;;5079431;28;20418;-74
2021/03/20 02:02:10;;;;;;;14.03;8.03;;;-0.80;99.90;;;;;;5081061;28;20461;-74
2021/03/20 02:04:35;;;;;;;8.80;6.43;;;-0.70;99.90;;;;;;5080510;28;20433;-74
2021/03/20 02:07:02;;;;;;;10.57;6.87;;;-0.60;99.90;;;;;;5079892;28;20563;-74
2021/03/20 02:09:28;;;;;;;10.17;7.67;;;-0.60;99.90;;;;;;5081638;28;20180;-74
2021/03/20 02:11:59;;;;;;;12.23;7.40;;;-0.50;99.90;;;;;;5079289;28;20426;-74
2021/03/20 02:14:34;;;;;;;9.93;7.10;;;-0.40;99.90;;;;;;5082536;28;20175;-74
2021/03/20 02:17:05;;;;;;;11.00;6.90;;;-0.40;99.90;;;;;;5080407;28;20401;-74
2021/03/20 02:19:48;;;;;;;11.03;7.80;;;-0.40;99.90;;;;;;5081475;28;20472;-75
2021/03/20 02:22:29;;;;;;;12.13;7.73;;;-0.30;99.90;;;;;;5081491;28;20401;-74
2021/03/20 02:25:32;;;;;;;12.00;7.53;;;-0.30;99.90;;;;;;5079184;28;20760;-74
2021/03/20 02:28:16;;;;;;;9.33;6.93;;;-0.20;99.90;;;;;;5081265;28;20434;-75
2021/03/20 02:30:57;;;;;;;11.70;7.07;;;-0.20;99.90;;;;;;5081288;28;20417;-75
2021/03/20 02:33:31;;;;;;;12.40;7.07;;;-0.10;99.90;;;;;;5078562;28;20928;-75
2021/03/20 02:36:10;;;;;;;7.77;5.43;;;-0.10;99.90;;;;;;5081521;28;20762;-74
2021/03/20 02:38:56;;;;;;;8.73;6.57;;;-0.10;99.90;;;;;;5080340;28;20437;-74
2021/03/20 02:41:27;;;;;;;11.37;6.20;;;0.00;99.90;;;;;;5078546;28;20450;-74
2021/03/20 02:43:53;;;;;;;8.63;5.90;;;0.10;99.90;;;;;;5076741;28;21124;-74
2021/03/20 02:46:23;;;;;;;7.27;6.30;;;0.10;99.90;;;;;;5078182;28;20460;-74
2021/03/20 02:49:17;;;;;;;11.90;6.97;;;0.10;99.90;;;;;;5078687;28;20180;-74
2021/03/20 02:51:48;;;;;;;10.70;6.50;;;0.10;99.90;;;;;;5081240;28;20491;-74
2021/03/20 02:54:33;;;;;;;8.77;6.10;;;0.10;99.90;;;;;;5079881;28;20821;-74
2021/03/20 02:57:20;;;;;;;7.27;5.47;;;0.10;99.90;;;;;;5078956;28;20417;-74
2021/03/20 02:59:55;;;;;;;8.00;6.63;;;0.10;99.90;;;;;;5078864;28;20411;-74
2021/03/20 03:02:24;;;;;;;10.33;7.00;;;0.10;99.90;;;;;;5079908;28;20421;-74
2021/03/20 03:05:01;;;;;;;11.97;6.57;;;0.10;99.90;;;;;;5084078;28;20445;-75
2021/03/20 03:07:59;;;;;;;8.77;5.87;;;0.10;99.90;;;;;;5082153;28;20469;-74
2021/03/20 03:10:29;;;;;;;8.50;7.03;;;0.10;99.90;;;;;;5069223;28;20457;-75
2021/03/20 03:13:00;;;;;;;7.37;6.40;;;0.10;99.90;;;;;;5081508;28;20480;-74
2021/03/20 03:15:29;;;;;;;10.90;7.00;;;0.10;99.90;;;;;;5083498;28;20555;-75
2021/03/20 03:18:01;;;;;;;8.80;7.07;;;0.20;99.90;;;;;;5083415;28;20423;-74
2021/03/20 03:20:32;;;;;;;10.10;6.43;;;0.20;99.90;;;;;;5083343;28;20422;-74
2021/03/20 03:23:03;;;;;;;7.37;6.03;;;0.20;99.90;;;;;;5082048;28;20979;-74
2021/03/20 03:25:30;;;;;;;9.33;7.10;;;0.30;99.90;;;;;;5079997;28;20987;-74
2021/03/20 03:28:00;;;;;;;12.27;6.70;;;0.30;99.90;;;;;;5084440;28;20459;-74
2021/03/20 03:30:27;;;;;;;10.83;6.50;;;0.30;99.90;;;;;;5081378;28;20433;-74
2021/03/20 03:33:05;;;;;;;8.77;7.17;;;0.20;99.90;;;;;;5084548;28;20523;-75
2021/03/20 03:35:35;;;;;;;10.00;6.37;;;0.30;99.90;;;;;;5083219;28;20417;-75
2021/03/20 03:38:12;;;;;;;12.43;6.60;;;0.20;99.90;;;;;;5082971;28;20979;-75
2021/03/20 03:40:56;;;;;;;10.30;6.90;;;0.20;99.90;;;;;;5079640;28;20457;-74
2021/03/20 03:43:22;;;;;;;10.33;7.23;;;0.20;99.90;;;;;;5081315;28;20386;-74
2021/03/20 03:45:48;;;;;;;12.53;7.80;;;0.20;99.90;;;;;;5083195;28;20394;-75
2021/03/20 03:48:15;;;;;;;11.63;8.50;;;0.30;99.90;;;;;;5083607;28;20441;-75
2021/03/20 03:50:42;;;;;;;9.87;7.50;;;0.30;99.90;;;;;;5083405;28;20443;-74
2021/03/20 03:53:09;;;;;;;10.90;7.70;;;0.20;99.90;;;;;;5077774;28;20435;-75
2021/03/20 03:55:35;;;;;;;10.10;6.93;;;0.20;99.90;;;;;;5083805;28;20486;-74
2021/03/20 03:58:27;;;;;;;10.70;7.40;;;0.20;99.90;;;;;;5082153;28;20470;-74
2021/03/20 04:01:12;;;;;;;10.80;6.63;;;0.20;99.90;;;;;;5080845;28;20993;-75
2021/03/20 04:03:59;;;;;;;7.97;6.87;;;0.20;99.90;;;;;;5077955;28;20844;-75
2021/03/20 04:06:54;;;;;;;9.70;6.97;;;0.20;99.90;;;;;;5080695;28;20461;-74
2021/03/20 04:09:57;;;;;;;8.90;6.63;;;0.20;99.90;;;;;;5082062;28;20477;-74
2021/03/20 04:12:32;;;;;;;10.13;6.57;;;0.20;99.90;;;;;;5080815;28;20434;-74
2021/03/20 04:15:07;;;;;;;9.07;7.17;;;0.10;99.90;;;;;;5081050;28;20407;-74
2021/03/20 04:17:44;;;;;;;11.07;7.17;;;0.20;99.90;;;;;;5080326;28;20446;-75
2021/03/20 04:20:17;;;;;;;10.97;7.40;;;0.20;99.90;;;;;;5081772;28;20532;-74
2021/03/20 04:22:57;;;;;;;9.50;6.40;;;0.20;99.90;;;;;;5081901;28;20466;-74
2021/03/20 04:25:53;;;;;;;8.33;6.20;;;0.10;99.90;;;;;;5076988;28;20422;-74
2021/03/20 04:28:37;;;;;;;8.73;6.07;;;0.10;99.90;;;;;;5082849;28;20528;-75
2021/03/20 04:31:22;;;;;;;8.77;6.43;;;0.10;99.90;;;;;;5083122;28;20536;-74
2021/03/20 04:34:06;;;;;;;7.83;6.20;;;0.00;99.90;;;;;;5080569;28;20443;-74
2021/03/20 04:36:38;;;;;;;14.67;7.80;;;-0.10;99.90;;;;;;5080821;28;20427;-74
2021/03/20 04:39:08;;;;;;;11.63;7.30;;;-0.10;99.90;;;;;;5078243;28;20421;-74
2021/03/20 04:41:34;;;;;;;10.73;8.00;;;-0.20;99.90;;;;;;5082122;28;20494;-75
2021/03/20 04:44:00;;;;;;;15.60;8.10;;;-0.30;99.90;;;;;;5080577;28;20451;-74
2021/03/20 04:46:31;;;;;;;8.43;6.50;;;-0.30;99.90;;;;;;5082233;28;20458;-74
2021/03/20 04:49:24;;;;;;;6.70;6.10;;;-0.30;99.90;;;;;;5081019;28;20444;-74
2021/03/20 04:51:57;;;;;;;10.10;7.43;;;-0.30;99.90;;;;;;5081683;28;20540;-74
2021/03/20 04:54:25;;;;;;;7.70;5.80;;;-0.40;99.90;;;;;;5080289;28;20421;-75
2021/03/20 04:56:55;;;;;;;15.27;7.50;;;-0.40;99.90;;;;;;5083024;28;20430;-73
2021/03/20 04:59:48;;;;;;;7.93;6.60;;;-0.40;99.90;;;;;;5081358;28;20455;-74
2021/03/20 05:02:25;;;;;;;13.30;7.43;;;-0.40;99.90;;;;;;5078359;28;20541;-74
2021/03/20 05:04:56;;;;;;;11.70;7.77;;;-0.40;99.90;;;;;;5080318;28;20940;-75
2021/03/20 05:07:23;;;;;;;14.83;6.83;;;-0.50;99.90;;;;;;5079889;28;20470;-74
2021/03/20 05:09:58;;;;;;;9.67;6.83;;;-0.50;99.90;;;;;;5079560;28;20441;-74
2021/03/20 05:12:27;;;;;;;9.13;6.20;;;-0.60;99.90;;;;;;5078172;28;20396;-74
2021/03/20 05:14:56;;;;;;;7.13;6.00;;;-0.70;99.90;;;;;;5079910;28;20444;-75
2021/03/20 05:17:22;;;;;;;11.30;6.97;;;-0.80;99.90;;;;;;5082819;28;21003;-74
2021/03/20 05:19:48;;;;;;;8.00;6.77;;;-0.80;99.90;;;;;;5079524;28;20401;-74
2021/03/20 05:22:22;;;;;;;12.67;7.17;;;-0.80;99.90;;;;;;5080075;28;20767;-74
2021/03/20 05:24:48;;;;;;;8.77;6.90;;;-0.80;99.90;;;;;;5078620;28;20447;-73
2021/03/20 05:27:19;;;;;;;7.07;6.37;;;-0.80;99.90;;;;;;5078738;28;20446;-74
2021/03/20 05:29:44;;;;;;;14.43;7.17;;;-0.80;99.90;;;;;;5080005;28;20478;-74
2021/03/20 05:32:13;;;;;;;11.27;7.93;;;-0.80;99.90;;;;;;5081466;28;20848;-73
2021/03/20 05:34:40;;;;;;;9.50;7.20;;;-0.70;99.90;;;;;;5081050;28;20194;-74
2021/03/20 05:37:09;;;;;;;8.90;6.73;;;-0.70;99.90;;;;;;5079949;28;20784;-74
2021/03/20 05:39:35;;;;;;;12.13;8.13;;;-0.70;99.90;;;;;;5080154;28;20441;-74
2021/03/20 05:42:25;;;;;;;11.07;8.07;;;-0.70;99.90;;;;;;5078006;28;20519;-73
2021/03/20 05:45:02;;;;;;;11.03;7.00;;;-0.70;99.90;;;;;;5082575;28;20616;-74
2021/03/20 05:47:44;;;;;;;9.27;6.90;;;-0.70;99.90;;;;;;5079019;28;20492;-74
2021/03/20 05:50:28;;;;;;;11.13;6.30;;;-0.70;99.90;;;;;;5081054;28;20777;-75
2021/03/20 05:52:56;;;;;;;9.03;7.13;;;-0.80;99.90;;;;;;5079207;28;20412;-74
2021/03/20 05:55:58;;;;;;;12.93;7.43;;;-0.70;99.90;;;;;;5078782;28;20472;-75
2021/03/20 05:58:41;;;;;;;10.13;7.40;;;-0.70;99.90;;;;;;5015913;28;20449;-73
2021/03/20 06:01:37;;;;;;;8.27;7.03;;;-0.60;99.90;;;;;;5080848;28;20969;-72
2021/03/20 06:04:32;;;;;;;7.50;6.60;;;-0.50;99.90;;;;;;5082157;28;20465;-72
2021/03/20 06:06:57;;;;;;;9.50;7.80;;;-0.40;99.90;;;;;;5077938;28;20494;-72
2021/03/20 06:09:47;;;;;;;9.93;7.13;;;-0.40;99.90;;;;;;5081085;28;20936;-72
2021/03/20 06:12:51;;;;;;;7.07;5.50;;;-0.30;99.90;;;;;;5079475;28;20179;-71
2021/03/20 06:15:35;;;;;;;7.63;5.70;;;-0.10;99.90;;;;;;5048572;28;20784;-72
2021/03/20 06:18:08;;;;;;;9.67;5.57;;;-0.10;99.90;;;;;;5080192;28;20571;-72
2021/03/20 06:20:48;;;;;;;7.10;5.97;;;0.00;99.90;;;;;;5081467;28;20426;-72
2021/03/20 06:23:23;;;;;;;12.73;5.17;;;0.10;99.90;;;;;;5080099;28;20784;-72
2021/03/20 06:26:06;;;;;;;7.50;6.10;;;0.20;99.90;;;;;;5080303;28;21021;-72
2021/03/20 06:28:37;;;;;;;8.57;5.80;;;0.30;99.90;;;;;;5082264;28;20452;-72
2021/03/20 06:31:17;;;;;;;5.93;4.80;;;0.40;99.90;;;;;;5075937;28;20417;-72
2021/03/20 06:33:59;;;;;;;6.57;5.83;;;0.60;99.90;;;;;;5078319;28;20431;-72
2021/03/20 06:37:05;;;;;;;6.90;4.90;;;0.60;99.90;;;;;;5082492;28;20527;-72
2021/03/20 06:40:04;;;;;;;5.20;4.70;;;0.80;99.90;;;;;;5070622;28;20428;-71
2021/03/20 06:42:34;;;;;;;8.00;5.67;;;0.80;99.90;;;;;;5078994;28;20496;-71
2021/03/20 06:45:21;;;;;;;5.73;5.13;;;0.90;99.90;;;;;;5081643;28;20442;-72
2021/03/20 06:47:49;;;;;;;4.90;4.30;;;1.00;99.90;;;;;;5085981;28;20461;-72
2021/03/20 06:50:25;;;;;;;6.33;4.83;;;1.10;99.90;;;;;;5081400;28;20463;-71
2021/03/20 06:52:55;;;;;;;5.07;4.30;;;1.10;99.90;;;;;;5080264;28;20422;-71
2021/03/20 06:55:40;;;;;;;4.37;3.97;;;1.30;99.90;;;;;;5082140;28;20948;-71
2021/03/20 06:58:18;;;;;;;7.13;4.70;;;1.40;99.90;;;;;;5082683;28;20382;-72
2021/03/20 07:00:44;;;;;;;6.70;4.90;;;1.50;99.90;;;;;;5082687;28;20850;-72
2021/03/20 07:03:13;;;;;;;4.57;4.10;;;1.60;99.90;;;;;;5083534;28;20397;-73
2021/03/20 07:05:54;;;;;;;3.90;3.30;;;1.80;99.90;;;;;;5084982;28;20801;-72
2021/03/20 07:08:42;;;;;;;7.90;5.83;;;2.30;99.90;;;;;;5081909;28;20465;-72
2021/03/20 07:11:24;;;;;;;5.33;4.00;;;2.60;99.90;;;;;;5084048;28;20949;-72
2021/03/20 07:13:53;;;;;;;4.40;4.00;;;3.00;99.90;;;;;;5083618;28;20414;-72
2021/03/20 07:16:21;;;;;;;7.50;3.43;;;3.20;99.90;;;;;;5081991;28;21027;-72
2021/03/20 07:18:49;;;;;;;3.40;3.20;;;3.30;99.90;;;;;;5082021;28;20509;-71
2021/03/20 07:21:26;;;;;;;2.97;2.67;;;3.30;99.90;;;;;;5073585;28;20516;-72
2021/03/20 07:24:03;;;;;;;3.03;2.73;;;3.00;99.90;;;;;;5070598;28;20797;-70
2021/03/20 07:26:31;;;;;;;3.50;2.80;;;2.90;99.90;;;;;;5086577;28;20444;-71
2021/03/20 07:28:59;;;;;;;2.97;2.77;;;2.90;99.90;;;;;;5085038;28;20954;-72
2021/03/20 07:31:25;;;;;;;3.83;3.37;;;2.70;99.90;;;;;;5086503;28;20440;-71
2021/03/20 07:33:55;;;;;;;4.20;3.83;;;2.40;99.90;;;;;;5087311;28;20386;-72
2021/03/20 07:36:37;;;;;;;2.73;2.53;;;2.60;99.90;;;;;;5084310;28;20413;-71
2021/03/20 07:39:15;;;;;;;3.77;3.40;;;3.10;99.90;;;;;;5080963;28;20483;-71
2021/03/20 07:41:49;;;;;;;3.17;2.97;;;3.60;99.90;;;;;;5087256;28;20437;-72
2021/03/20 07:44:16;;;;;;;3.73;3.43;;;4.20;99.90;;;;;;5085733;28;20399;-71
2021/03/20 07:46:42;;;;;;;2.80;2.60;;;4.10;99.90;;;;;;5084473;28;22513;-72
2021/03/20 07:49:26;;;;;;;3.80;3.50;;;4.00;99.90;;;;;;5083163;28;20523;-71
2021/03/20 07:52:25;;;;;;;5.47;3.50;;;4.00;99.90;;;;;;5084989;28;20525;-72
2021/03/20 07:55:05;;;;;;;4.00;3.70;;;3.90;99.90;;;;;;5075726;28;20514;-71
2021/03/20 07:57:31;;;;;;;3.23;3.00;;;3.70;99.90;;;;;;5082633;28;20408;-72
2021/03/20 07:59:56;;;;;;;4.23;3.20;;;3.70;99.90;;;;;;5079939;28;20406;-71
2021/03/20 08:02:39;;;;;;;3.53;3.33;;;3.70;99.90;;;;;;5087892;28;20827;-71
2021/03/20 08:05:20;;;;;;;5.43;4.30;;;3.60;99.90;;;;;;5088304;28;20211;-72
2021/03/20 08:07:48;;;;;;;6.50;3.90;;;4.10;99.90;;;;;;5083768;28;20469;-72
2021/03/20 08:10:32;;;;;;;3.47;3.10;;;5.00;99.90;;;;;;5088719;28;20445;-72
2021/03/20 08:13:13;;;;;;;7.83;3.93;;;5.50;99.90;;;;;;5084707;28;20409;-72
2021/03/20 08:15:43;;;;;;;3.10;2.80;;;5.40;99.90;;;;;;5090134;28;20422;-72
2021/03/20 08:18:30;;;;;;;2.80;2.60;;;5.70;99.90;;;;;;5084688;28;20445;-72
2021/03/20 08:21:03;;;;;;;3.90;2.47;;;5.40;99.90;;;;;;5083296;28;20936;-73
2021/03/20 08:23:51;;;;;;;2.07;1.97;;;5.30;99.90;;;;;;5082255;28;20423;-72
2021/03/20 08:26:28;;;;;;;6.83;3.33;;;5.60;99.90;;;;;;5081711;28;20932;-72
2021/03/20 08:29:21;;;;;;;5.23;2.97;;;6.20;99.90;;;;;;5083109;28;20958;-72
2021/03/20 08:32:21;;;;;;;4.40;2.93;;;6.60;99.90;;;;;;5082426;28;20462;-72
2021/03/20 08:34:59;;;;;;;2.30;2.10;;;6.90;99.90;;;;;;5084637;28;20413;-72
2021/03/20 08:37:56;;;;;;;3.63;2.93;;;7.20;99.90;;;;;;5090117;28;20499;-72
2021/03/20 08:40:26;;;;;;;4.07;3.13;;;7.00;99.90;;;;;;5082805;28;20998;-72
2021/03/20 08:43:19;;;;;;;6.67;2.33;;;6.90;99.90;;;;;;5089004;28;20387;-72
2021/03/20 08:46:13;;;;;;;3.13;2.63;;;6.60;99.90;;;;;;5082727;28;20927;-71
2021/03/20 08:48:45;;;;;;;6.73;2.83;;;6.20;99.90;;;;;;5068992;28;20432;-72
2021/03/20 08:51:24;;;;;;;3.37;1.97;;;6.40;99.90;;;;;;5078248;28;20462;-72
2021/03/20 08:54:17;;;;;;;3.57;2.07;;;6.70;99.90;;;;;;5082777;28;20419;-72
2021/03/20 08:57:13;;;;;;;3.43;2.07;;;6.30;99.90;;;;;;5079690;28;20436;-72
2021/03/20 08:59:49;;;;;;;2.60;2.40;;;6.00;99.90;;;;;;5080787;28;20407;-72
2021/03/20 09:02:23;;;;;;;3.23;1.77;;;6.60;99.90;;;;;;5084188;28;20431;-72
2021/03/20 09:05:15;;;;;;;3.83;2.30;;;7.10;99.90;;;;;;5081082;28;20436;-71
2021/03/20 09:08:03;;;;;;;3.20;2.40;;;7.40;99.90;;;;;;5078334;28;20478;-71
2021/03/20 09:10:36;;;;;;;3.13;2.70;;;7.80;99.90;;;;;;5071686;28;20461;-72
2021/03/20 09:13:12;;;;;;;2.57;2.37;;;7.80;99.90;;;;;;5085469;28;20392;-72
2021/03/20 09:15:43;;;;;;;2.60;2.10;;;7.60;99.90;;;;;;5084188;28;20863;-73
2021/03/20 09:18:12;;;;;;;1.70;1.60;;;7.20;99.90;;;;;;5084820;28;20504;-72
2021/03/20 09:20:44;;;;;;;2.23;2.13;;;7.50;99.90;;;;;;5081869;28;20441;-72
2021/03/20 09:23:28;;;;;;;2.53;2.33;;;7.70;99.90;;;;;;5081628;28;20466;-72
2021/03/20 09:26:01;;;;;;;2.50;2.30;;;8.00;99.90;;;;;;5084023;28;20484;-72
2021/03/20 09:28:50;;;;;;;2.73;2.53;;;8.40;99.90;;;;;;5086845;28;21007;-72
2021/03/20 09:31:31;;;;;;;2.60;2.40;;;8.30;99.90;;;;;;5081933;28;20446;-72
2021/03/20 09:33:58;;;;;;;1.70;1.60;;;8.20;99.90;;;;;;5082529;28;20525;-73
2021/03/20 09:36:33;;;;;;;2.00;1.90;;;8.00;99.90;;;;;;5081284;28;20461;-71
2021/03/20 09:39:01;;;;;;;3.23;2.50;;;7.60;99.10;;;;;;5086924;28;20441;-71
2021/03/20 09:41:27;;;;;;;2.60;2.27;;;7.60;99.90;;;;;;5076914;28;20857;-72
2021/03/20 09:43:55;;;;;;;2.60;2.40;;;7.60;99.90;;;;;;5085173;28;20531;-71
2021/03/20 09:46:38;;;;;;;2.70;2.57;;;7.80;99.80;;;;;;5086328;28;20193;-72
2021/03/20 09:49:24;;;;;;;2.43;2.23;;;7.50;98.60;;;;;;5084495;28;20495;-73
2021/03/20 09:51:59;;;;;;;3.30;2.57;;;7.60;99.90;;;;;;5068338;28;20454;-73
2021/03/20 09:57:22;;;;;;;6.40;2.90;;;7.80;99.90;;;;;;5079991;28;20490;-72
2021/03/20 09:59:48;;;;;;;3.27;2.17;;;8.40;99.90;;;;;;5078509;28;20200;-72
2021/03/20 10:02:19;;;;;;;3.03;2.23;;;8.50;99.00;;;;;;5080122;28;20419;-72
2021/03/20 10:04:51;;;;;;;2.10;2.00;;;8.50;97.90;;;;;;5076471;28;20441;-72
2021/03/20 10:07:22;;;;;;;4.73;2.73;;;8.30;96.90;;;;;;5077978;28;20477;-73
2021/03/20 10:10:14;;;;;;;2.10;1.87;;;7.90;97.70;;;;;;5081561;28;20440;-72
2021/03/20 10:12:42;;;;;;;4.30;2.60;;;8.00;98.90;;;;;;5053070;28;20916;-72
2021/03/20 10:15:16;;;;;;;2.60;2.33;;;8.00;96.90;;;;;;5084874;28;20445;-75
2021/03/20 10:18:03;;;;;;;2.17;1.97;;;8.20;96.70;;;;;;5082970;28;20445;-72
2021/03/20 10:21:04;;;;;;;2.73;2.10;;;8.60;99.10;;;;;;5082869;28;20434;-72
2021/03/20 10:23:52;;;;;;;2.57;2.37;;;8.60;97.00;;;;;;5082999;28;20443;-73
2021/03/20 10:26:21;;;;;;;2.60;2.00;;;8.40;96.00;;;;;;5082440;28;20882;-74
2021/03/20 10:28:51;;;;;;;2.17;2.00;;;8.70;99.60;;;;;;5081393;28;20481;-73
2021/03/20 10:31:17;;;;;;;2.20;2.10;;;9.00;96.50;;;;;;5089639;28;20422;-73
2021/03/20 10:33:44;;;;;;;1.90;1.80;;;8.80;96.20;;;;;;5084282;28;20418;-73
2021/03/20 10:36:18;;;;;;;2.70;2.30;;;9.10;96.20;;;;;;5084550;28;20783;-73
2021/03/20 10:38:46;;;;;;;2.10;1.90;;;9.30;93.40;;;;;;5083553;28;20959;-75
2021/03/20 10:41:17;;;;;;;1.90;1.80;;;9.40;99.60;;;;;;5083761;28;20448;-72
2021/03/20 10:43:53;;;;;;;3.60;3.10;;;9.50;96.60;;;;;;5081994;28;20437;-72
2021/03/20 10:46:32;;;;;;;2.43;2.03;;;9.40;93.90;;;;;;5077346;28;20412;-73
2021/03/20 10:49:00;;;;;;;3.00;2.80;;;9.20;91.90;;;;;;5084756;28;20523;-73
2021/03/20 10:51:33;;;;;;;3.37;2.20;;;9.00;96.50;;;;;;5083184;28;20441;-73
2021/03/20 10:54:21;;;;;;;4.77;2.30;;;9.10;99.90;;;;;;5085886;28;20437;-74
2021/03/20 10:56:48;;;;;;;3.17;2.13;;;9.00;96.90;;;;;;5076410;28;20942;-74
2021/03/20 10:59:33;;;;;;;5.07;2.30;;;8.40;97.70;;;;;;5085187;28;20438;-73
2021/03/20 11:02:33;;;;;;;3.23;2.30;;;8.20;95.90;;;;;;5084055;28;20491;-72
2021/03/20 11:05:14;;;;;;;3.97;2.07;;;8.50;95.30;;;;;;5082804;28;20926;-73
2021/03/20 11:07:52;;;;;;;2.20;2.00;;;8.50;92.50;;;;;;5082667;28;20465;-73
2021/03/20 11:10:32;;;;;;;2.30;2.20;;;8.30;93.60;;;;;;5081261;28;20825;-72
2021/03/20 11:13:04;;;;;;;2.57;2.33;;;8.40;92.30;;;;;;5083512;28;20427;-73
2021/03/20 11:15:33;;;;;;;3.50;2.50;;;8.60;94.00;;;;;;5084627;28;20459;-73
2021/03/20 11:18:00;;;;;;;8.47;3.40;;;8.30;92.50;;;;;;5086141;28;20480;-72
2021/03/20 11:20:32;;;;;;;2.53;2.33;;;8.00;93.50;;;;;;5085672;28;20442;-72
2021/03/20 11:22:57;;;;;;;3.10;2.80;;;8.10;97.10;;;;;;5083869;28;20438;-75
2021/03/20 11:25:31;;;;;;;3.60;2.80;;;8.10;94.60;;;;;;5083432;28;20438;-72
2021/03/20 11:28:03;;;;;;;2.50;2.40;;;7.60;93.70;;;;;;5080548;28;20687;-76
2021/03/20 11:30:40;;;;;;;2.80;2.17;;;7.60;93.60;;;;;;5085902;28;20475;-72
2021/03/20 11:33:07;;;;;;;2.43;2.23;;;7.50;92.90;;;;;;5084349;28;20439;-73
2021/03/20 11:35:36;;;;;;;2.73;2.10;;;7.60;93.30;;;;;;5086106;28;20463;-72
2021/03/20 11:38:04;;;;;;;3.30;2.57;;;7.50;95.20;;;;;;5082286;28;20426;-72
2021/03/20 11:40:39;;;;;;;1.90;1.80;;;7.50;95.10;;;;;;5082110;28;20465;-73
2021/03/20 11:43:19;;;;;;;2.70;2.47;;;7.10;94.60;;;;;;5081624;28;20445;-72
2021/03/20 11:45:45;;;;;;;2.80;2.60;;;6.60;95.80;;;;;;5083727;28;20422;-72
2021/03/20 11:48:23;;;;;;;2.90;2.70;;;6.60;96.40;;;;;;5082528;28;20480;-73
2021/03/20 11:50:57;;;;;;;4.63;3.10;;;6.50;96.10;;;;;;5081521;28;20195;-73
2021/03/20 11:53:36;;;;;;;2.70;2.33;;;6.70;98.50;;;;;;5081501;28;20430;-71
2021/03/20 11:56:18;;;;;;;3.97;2.70;;;7.20;98.60;;;;;;5083773;28;21072;-72
2021/03/20 11:58:55;;;;;;;3.47;3.17;;;7.60;99.00;;;;;;5081010;28;20439;-72
2021/03/20 12:01:27;;;;;;;2.70;2.60;;;7.70;97.60;;;;;;5083059;28;20528;-72
2021/03/20 12:03:54;;;;;;;2.90;2.70;;;7.50;97.10;;;;;;5081357;28;20959;-72
2021/03/20 12:06:32;;;;;;;2.93;2.33;;;7.10;95.80;;;;;;5081974;28;20860;-73
2021/03/20 12:09:00;;;;;;;4.03;3.00;;;7.00;95.70;;;;;;5075808;28;20457;-72
2021/03/20 12:11:44;;;;;;;3.00;2.70;;;7.10;96.20;;;;;;5079578;28;20528;-73
2021/03/20 12:14:27;;;;;;;3.40;3.10;;;7.10;97.60;;;;;;5080290;28;20481;-71
2021/03/20 12:17:03;;;;;;;2.97;2.77;;;6.70;95.60;;;;;;5082000;28;20409;-71
2021/03/20 12:19:29;;;;;;;5.93;3.07;;;6.60;96.80;;;;;;5080132;28;20767;-72
2021/03/20 12:22:14;;;;;;;2.73;2.63;;;6.80;96.20;;;;;;5083080;28;20474;-71
2021/03/20 12:24:51;;;;;;;3.63;3.27;;;7.20;96.90;;;;;;5080642;28;20280;-72
2021/03/20 12:27:37;;;;;;;2.80;2.60;;;7.00;93.80;;;;;;5080260;28;20553;-72
2021/03/20 12:30:21;;;;;;;3.73;2.57;;;7.20;97.70;;;;;;5082938;28;21001;-73
2021/03/20 12:32:48;;;;;;;6.40;2.57;;;7.10;95.80;;;;;;5085634;28;20441;-72
2021/03/20 12:35:17;;;;;;;3.17;2.90;;;6.60;94.90;;;;;;5084634;28;20433;-72
2021/03/20 12:37:44;;;;;;;5.10;2.80;;;6.30;94.20;;;;;;5081869;28;20440;-73
2021/03/20 12:40:10;;;;;;;4.03;2.40;;;5.90;94.90;;;;;;5084343;28;20463;-72
2021/03/20 12:42:36;;;;;;;3.80;2.43;;;5.90;96.50;;;;;;5082192;28;20821;-72
2021/03/20 12:45:03;;;;;;;2.70;2.20;;;6.20;96.50;;;;;;5079995;28;20437;-72
2021/03/20 12:47:31;;;;;;;3.10;2.70;;;6.40;96.00;;;;;;5080128;28;20780;-72
2021/03/20 12:49:57;;;;;;;3.30;2.70;;;6.50;95.70;;;;;;5080736;28;20401;-73
2021/03/20 12:52:22;;;;;;;5.80;3.07;;;6.50;96.00;;;;;;5079560;28;20419;-72
2021/03/20 12:54:54;;;;;;;2.87;2.67;;;6.50;97.50;;;;;;5082707;28;20213;-72
2021/03/20 12:57:24;;;;;;;4.30;2.70;;;6.60;98.30;;;;;;5089720;28;20508;-71
2021/03/20 12:59:49;;;;;;;3.17;2.43;;;6.80;97.70;;;;;;5082258;28;20439;-72
2021/03/20 13:02:16;;;;;;;8.20;2.80;;;6.90;96.10;;;;;;5082328;28;20406;-71
2021/03/20 13:04:42;;;;;;;3.00;2.50;;;6.70;96.00;;;;;;5079688;28;20208;-71
2021/03/20 13:07:09;;;;;;;3.13;2.77;;;6.80;95.10;;;;;;5081223;28;20508;-71
2021/03/20 13:09:38;;;;;;;4.90;3.10;;;6.50;94.40;;;;;;5078948;28;20177;-72
2021/03/20 13:12:06;;;;;;;2.80;2.70;;;6.30;95.00;;;;;;5077919;28;20452;-72
2021/03/20 13:14:33;;;;;;;3.13;2.87;;;6.30;94.60;;;;;;5086958;28;20438;-73
2021/03/20 13:16:59;;;;;;;3.90;2.30;;;6.20;95.10;;;;;;5086273;28;20444;-73
2021/03/20 13:19:24;;;;;;;3.43;2.60;;;6.50;96.90;;;;;;5086495;28;20972;-72
2021/03/20 13:21:50;;;;;;;4.20;2.53;;;6.40;96.80;;;;;;5088961;28;20205;-72
2021/03/20 13:24:15;;;;;;;3.50;2.97;;;6.50;96.90;;;;;;5080444;28;20246;-71
2021/03/20 13:26:41;;;;;;;3.40;3.10;;;6.50;95.50;;;;;;5080928;28;20211;-73
2021/03/20 13:29:07;;;;;;;2.97;2.50;;;6.60;95.70;;;;;;5082639;28;20186;-72
2021/03/20 13:31:33;;;;;;;3.83;2.73;;;6.50;97.90;;;;;;5077286;28;20468;-71